sensor_id;sensor_type;location;lat;lon;timestamp;temperature;humidity
2489;DHT22;1255;48.716;9.124;2024-01-27T00:02:13;1.20;99.90
2489;DHT22;1255;48.716;9.124;2024-01-27T00:04:40;1.10;99.90
2489;DHT22;1255;48.716;9.124;2024-01-27T00:07:07;1.10;99.90
2489;DHT22;1255;48.716;9.124;2024-01-27T00:09:34;1.10;99.90
2489;DHT22;1255;48.716;9.124;2024-01-27T00:12:02;1.00;99.90
2489;DHT22;1255;48.716;9.124;2024-01-27T00:14:29;1.00;99.90
2489;DHT22;1255;48.716;9.124;2024-01-27T00:16:54;1.00;99.90
2489;DHT22;1255;48.716;9.124;2024-01-27T00:19:21;0.90;99.90
2489;DHT22;1255;48.716;9.124;2024-01-27T00:21:48;0.90;99.90
2489;DHT22;1255;48.716;9.124;2024-01-27T00:24:14;0.90;99.90
2489;DHT22;1255;48.716;9.124;2024-01-27T00:26:42;0.80;99.90
2489;DHT22;1255;48.716;9.124;2024-01-27T00:29:11;0.80;99.90
2489;DHT22;1255;48.716;9.124;2024-01-27T00:31:38;0.70;99.90
2489;DHT22;1255;48.716;9.124;2024-01-27T00:34:04;0.70;99.90
2489;DHT22;1255;48.716;9.124;2024-01-27T00:36:31;0.70;99.90
2489;DHT22;1255;48.716;9.124;2024-01-27T00:38:58;0.70;99.90
2489;DHT22;1255;48.716;9.124;2024-01-27T00:41:25;0.60;99.90
2489;DHT22;1255;48.716;9.124;2024-01-27T00:43:52;0.60;99.90
2489;DHT22;1255;48.716;9.124;2024-01-27T00:46:20;0.60;99.90
2489;DHT22;1255;48.716;9.124;2024-01-27T00:48:47;0.60;99.90
2489;DHT22;1255;48.716;9.124;2024-01-27T00:51:14;0.60;99.90
2489;DHT22;1255;48.716;9.124;2024-01-27T00:53:40;0.60;99.90
2489;DHT22;1255;48.716;9.124;2024-01-27T00:56:07;0.60;99.90
2489;DHT22;1255;48.716;9.124;2024-01-27T00:58:34;0.60;99.90
2489;DHT22;1255;48.716;9.124;2024-01-27T01:01:01;0.60;99.90
2489;DHT22;1255;48.716;9.124;2024-01-27T01:03:29;0.60;99.90
2489;DHT22;1255;48.716;9.124;2024-01-27T01:05:56;0.60;99.90
2489;DHT22;1255;48.716;9.124;2024-01-27T01:08:22;0.60;99.90
2489;DHT22;1255;48.716;9.124;2024-01-27T01:10:49;0.50;99.90
2489;DHT22;1255;48.716;9.124;2024-01-27T01:13:16;0.40;99.90
2489;DHT22;1255;48.716;9.124;2024-01-27T01:15:43;0.40;99.90
2489;DHT22;1255;48.716;9.124;2024-01-27T01:18:09;0.30;99.90
2489;DHT22;1255;48.716;9.124;2024-01-27T01:20:37;0.30;99.90
2489;DHT22;1255;48.716;9.124;2024-01-27T01:23:04;0.30;99.90
2489;DHT22;1255;48.716;9.124;2024-01-27T01:25:31;0.30;99.90
2489;DHT22;1255;48.716;9.124;2024-01-27T01:27:58;0.30;99.90
2489;DHT22;1255;48.716;9.124;2024-01-27T01:30:24;0.30;99.90
2489;DHT22;1255;48.716;9.124;2024-01-27T01:32:51;0.30;99.90
2489;DHT22;1255;48.716;9.124;2024-01-27T01:35:18;0.20;99.90
2489;DHT22;1255;48.716;9.124;2024-01-27T01:37:46;0.20;99.90
2489;DHT22;1255;48.716;9.124;2024-01-27T01:40:13;0.20;99.90
2489;DHT22;1255;48.716;9.124;2024-01-27T01:42:40;0.10;99.90
2489;DHT22;1255;48.716;9.124;2024-01-27T01:45:09;0.10;99.90
2489;DHT22;1255;48.716;9.124;2024-01-27T01:47:37;0.00;99.90
2489;DHT22;1255;48.716;9.124;2024-01-27T01:50:06;0.00;99.90
2489;DHT22;1255;48.716;9.124;2024-01-27T01:52:33;0.00;99.90
2489;DHT22;1255;48.716;9.124;2024-01-27T01:55:01;0.00;99.90
2489;DHT22;1255;48.716;9.124;2024-01-27T01:57:28;0.00;99.90
2489;DHT22;1255;48.716;9.124;2024-01-27T01:59:55;-0.10;99.90
2489;DHT22;1255;48.716;9.124;2024-01-27T02:02:22;-0.10;99.90
2489;DHT22;1255;48.716;9.124;2024-01-27T02:04:48;-0.10;99.90
2489;DHT22;1255;48.716;9.124;2024-01-27T02:07:15;-0.10;99.90
2489;DHT22;1255;48.716;9.124;2024-01-27T02:09:42;-0.10;99.90
2489;DHT22;1255;48.716;9.124;2024-01-27T02:12:10;-0.10;99.90
2489;DHT22;1255;48.716;9.124;2024-01-27T02:14:37;-0.20;99.90
2489;DHT22;1255;48.716;9.124;2024-01-27T02:17:04;-0.20;99.90
2489;DHT22;1255;48.716;9.124;2024-01-27T02:19:31;-0.10;99.90
2489;DHT22;1255;48.716;9.124;2024-01-27T02:21:58;-0.20;99.90
2489;DHT22;1255;48.716;9.124;2024-01-27T02:24:26;-0.20;99.90
2489;DHT22;1255;48.716;9.124;2024-01-27T02:26:53;-0.20;99.90
2489;DHT22;1255;48.716;9.124;2024-01-27T02:29:21;-0.20;99.90
2489;DHT22;1255;48.716;9.124;2024-01-27T02:31:47;-0.30;99.90
2489;DHT22;1255;48.716;9.124;2024-01-27T02:34:14;-0.30;99.90
2489;DHT22;1255;48.716;9.124;2024-01-27T02:36:41;-0.30;99.90
2489;DHT22;1255;48.716;9.124;2024-01-27T02:39:09;-0.40;99.90
2489;DHT22;1255;48.716;9.124;2024-01-27T02:41:37;-0.30;99.90
2489;DHT22;1255;48.716;9.124;2024-01-27T02:44:04;-0.30;99.90
2489;DHT22;1255;48.716;9.124;2024-01-27T02:46:31;-0.30;99.90
2489;DHT22;1255;48.716;9.124;2024-01-27T02:48:58;-0.30;99.90
2489;DHT22;1255;48.716;9.124;2024-01-27T02:51:25;-0.30;99.90
2489;DHT22;1255;48.716;9.124;2024-01-27T02:53:51;-0.30;99.90
2489;DHT22;1255;48.716;9.124;2024-01-27T02:56:18;-0.40;99.90
2489;DHT22;1255;48.716;9.124;2024-01-27T02:58:46;-0.40;99.90
2489;DHT22;1255;48.716;9.124;2024-01-27T03:01:13;-0.40;99.90
2489;DHT22;1255;48.716;9.124;2024-01-27T03:03:40;-0.50;99.90
2489;DHT22;1255;48.716;9.124;2024-01-27T03:06:07;-0.50;99.90
2489;DHT22;1255;48.716;9.124;2024-01-27T03:08:33;-0.50;99.90
2489;DHT22;1255;48.716;9.124;2024-01-27T03:11:00;-0.50;99.90
2489;DHT22;1255;48.716;9.124;2024-01-27T03:13:27;-0.50;99.90
2489;DHT22;1255;48.716;9.124;2024-01-27T03:15:55;-0.60;99.90
2489;DHT22;1255;48.716;9.124;2024-01-27T03:18:22;-0.60;99.90
2489;DHT22;1255;48.716;9.124;2024-01-27T03:20:50;-0.60;99.90
2489;DHT22;1255;48.716;9.124;2024-01-27T03:23:17;-0.60;99.90
2489;DHT22;1255;48.716;9.124;2024-01-27T03:25:43;-0.60;99.90
2489;DHT22;1255;48.716;9.124;2024-01-27T03:28:10;-0.70;99.90
2489;DHT22;1255;48.716;9.124;2024-01-27T03:30:37;-0.70;99.90
2489;DHT22;1255;48.716;9.124;2024-01-27T03:33:05;-0.60;99.90
2489;DHT22;1255;48.716;9.124;2024-01-27T03:35:36;-0.60;99.90
2489;DHT22;1255;48.716;9.124;2024-01-27T03:38:03;-0.70;99.90
2489;DHT22;1255;48.716;9.124;2024-01-27T03:40:29;-0.70;99.90
2489;DHT22;1255;48.716;9.124;2024-01-27T03:42:56;-0.70;99.90
2489;DHT22;1255;48.716;9.124;2024-01-27T03:45:23;-0.70;99.90
2489;DHT22;1255;48.716;9.124;2024-01-27T03:47:50;-0.70;99.90
2489;DHT22;1255;48.716;9.124;2024-01-27T03:50:18;-0.70;99.90
2489;DHT22;1255;48.716;9.124;2024-01-27T03:52:45;-0.70;99.90
2489;DHT22;1255;48.716;9.124;2024-01-27T03:55:11;-0.70;99.90
2489;DHT22;1255;48.716;9.124;2024-01-27T03:57:38;-0.70;99.90
2489;DHT22;1255;48.716;9.124;2024-01-27T04:00:06;-0.80;99.90
2489;DHT22;1255;48.716;9.124;2024-01-27T04:02:33;-0.70;99.90
2489;DHT22;1255;48.716;9.124;2024-01-27T04:05:00;-0.70;99.90
2489;DHT22;1255;48.716;9.124;2024-01-27T04:07:28;-0.80;99.90
2489;DHT22;1255;48.716;9.124;2024-01-27T04:09:55;-0.80;99.90
2489;DHT22;1255;48.716;9.124;2024-01-27T04:12:21;-0.80;99.90
2489;DHT22;1255;48.716;9.124;2024-01-27T04:14:48;-0.80;99.90
2489;DHT22;1255;48.716;9.124;2024-01-27T04:17:15;-0.80;99.90
2489;DHT22;1255;48.716;9.124;2024-01-27T04:19:41;-0.80;99.90
2489;DHT22;1255;48.716;9.124;2024-01-27T04:22:08;-0.80;99.90
2489;DHT22;1255;48.716;9.124;2024-01-27T04:24:36;-0.80;99.90
2489;DHT22;1255;48.716;9.124;2024-01-27T04:27:04;-0.80;99.90
2489;DHT22;1255;48.716;9.124;2024-01-27T04:29:30;-0.80;99.90
2489;DHT22;1255;48.716;9.124;2024-01-27T04:31:57;-0.80;99.90
2489;DHT22;1255;48.716;9.124;2024-01-27T04:34:24;-0.90;99.90
2489;DHT22;1255;48.716;9.124;2024-01-27T04:36:51;-0.90;99.90
2489;DHT22;1255;48.716;9.124;2024-01-27T04:39:18;-0.90;99.90
2489;DHT22;1255;48.716;9.124;2024-01-27T04:41:46;-0.90;99.90
2489;DHT22;1255;48.716;9.124;2024-01-27T04:44:12;-0.90;99.90
2489;DHT22;1255;48.716;9.124;2024-01-27T04:46:39;-0.90;99.90
2489;DHT22;1255;48.716;9.124;2024-01-27T04:49:06;-0.90;99.90
2489;DHT22;1255;48.716;9.124;2024-01-27T04:51:33;-0.90;99.90
2489;DHT22;1255;48.716;9.124;2024-01-27T04:53:59;-0.90;99.90
2489;DHT22;1255;48.716;9.124;2024-01-27T04:56:26;-0.90;99.90
2489;DHT22;1255;48.716;9.124;2024-01-27T04:58:54;-0.90;99.90
2489;DHT22;1255;48.716;9.124;2024-01-27T05:01:21;-0.90;99.90
2489;DHT22;1255;48.716;9.124;2024-01-27T05:03:48;-1.00;99.90
2489;DHT22;1255;48.716;9.124;2024-01-27T05:06:15;-1.00;99.90
2489;DHT22;1255;48.716;9.124;2024-01-27T05:08:42;-1.00;99.90
2489;DHT22;1255;48.716;9.124;2024-01-27T05:11:09;-1.10;99.90
2489;DHT22;1255;48.716;9.124;2024-01-27T05:13:36;-1.10;99.90
2489;DHT22;1255;48.716;9.124;2024-01-27T05:16:06;-1.10;99.90
2489;DHT22;1255;48.716;9.124;2024-01-27T05:18:32;-1.10;99.90
2489;DHT22;1255;48.716;9.124;2024-01-27T05:20:59;-1.10;99.90
2489;DHT22;1255;48.716;9.124;2024-01-27T05:23:26;-1.10;99.90
2489;DHT22;1255;48.716;9.124;2024-01-27T05:25:53;-1.10;99.90
2489;DHT22;1255;48.716;9.124;2024-01-27T05:28:20;-1.10;99.90
2489;DHT22;1255;48.716;9.124;2024-01-27T05:30:47;-1.10;99.90
2489;DHT22;1255;48.716;9.124;2024-01-27T05:33:15;-1.10;99.90
2489;DHT22;1255;48.716;9.124;2024-01-27T05:35:42;-1.20;99.90
2489;DHT22;1255;48.716;9.124;2024-01-27T05:38:09;-1.20;99.90
2489;DHT22;1255;48.716;9.124;2024-01-27T05:40:36;-1.20;99.90
2489;DHT22;1255;48.716;9.124;2024-01-27T05:43:03;-1.20;99.90
2489;DHT22;1255;48.716;9.124;2024-01-27T05:45:29;-1.20;99.90
2489;DHT22;1255;48.716;9.124;2024-01-27T05:47:57;-1.20;99.90
2489;DHT22;1255;48.716;9.124;2024-01-27T05:50:25;-1.20;99.90
2489;DHT22;1255;48.716;9.124;2024-01-27T05:52:52;-1.20;99.90
2489;DHT22;1255;48.716;9.124;2024-01-27T05:55:19;-1.20;99.90
2489;DHT22;1255;48.716;9.124;2024-01-27T05:57:46;-1.30;99.90
2489;DHT22;1255;48.716;9.124;2024-01-27T06:00:13;-1.20;99.90
2489;DHT22;1255;48.716;9.124;2024-01-27T06:02:40;-1.30;99.90
2489;DHT22;1255;48.716;9.124;2024-01-27T06:05:07;-1.30;99.90
2489;DHT22;1255;48.716;9.124;2024-01-27T06:07:38;-1.30;99.90
2489;DHT22;1255;48.716;9.124;2024-01-27T06:10:07;-1.40;99.90
2489;DHT22;1255;48.716;9.124;2024-01-27T06:12:34;-1.40;99.90
2489;DHT22;1255;48.716;9.124;2024-01-27T06:15:01;-1.40;99.90
2489;DHT22;1255;48.716;9.124;2024-01-27T06:17:29;-1.40;99.90
2489;DHT22;1255;48.716;9.124;2024-01-27T06:19:55;-1.40;99.90
2489;DHT22;1255;48.716;9.124;2024-01-27T06:22:22;-1.50;99.90
2489;DHT22;1255;48.716;9.124;2024-01-27T06:24:50;-1.50;99.90
2489;DHT22;1255;48.716;9.124;2024-01-27T06:27:17;-1.50;99.90
2489;DHT22;1255;48.716;9.124;2024-01-27T06:29:44;-1.50;99.90
2489;DHT22;1255;48.716;9.124;2024-01-27T06:32:10;-1.20;99.90
2489;DHT22;1255;48.716;9.124;2024-01-27T06:34:37;-1.30;99.90
2489;DHT22;1255;48.716;9.124;2024-01-27T06:37:04;-1.30;99.90
2489;DHT22;1255;48.716;9.124;2024-01-27T06:39:31;-1.30;99.90
2489;DHT22;1255;48.716;9.124;2024-01-27T06:41:59;-1.40;99.90
2489;DHT22;1255;48.716;9.124;2024-01-27T06:44:26;-1.50;99.90
2489;DHT22;1255;48.716;9.124;2024-01-27T06:46:53;-1.50;99.90
2489;DHT22;1255;48.716;9.124;2024-01-27T06:49:19;-1.50;99.90
2489;DHT22;1255;48.716;9.124;2024-01-27T06:51:46;-1.50;99.90
2489;DHT22;1255;48.716;9.124;2024-01-27T06:54:13;-1.50;99.90
2489;DHT22;1255;48.716;9.124;2024-01-27T06:56:39;-1.50;99.90
2489;DHT22;1255;48.716;9.124;2024-01-27T06:59:08;-1.60;99.90
2489;DHT22;1255;48.716;9.124;2024-01-27T07:01:34;-1.50;99.90
2489;DHT22;1255;48.716;9.124;2024-01-27T07:04:01;-1.50;99.90
2489;DHT22;1255;48.716;9.124;2024-01-27T07:06:28;-1.50;99.90
2489;DHT22;1255;48.716;9.124;2024-01-27T07:08:55;-1.50;99.90
2489;DHT22;1255;48.716;9.124;2024-01-27T07:11:21;-1.50;99.90
2489;DHT22;1255;48.716;9.124;2024-01-27T07:13:48;-1.60;99.90
2489;DHT22;1255;48.716;9.124;2024-01-27T07:16:17;-1.50;99.90
2489;DHT22;1255;48.716;9.124;2024-01-27T07:18:43;-1.60;99.90
2489;DHT22;1255;48.716;9.124;2024-01-27T07:21:15;-1.50;99.90
2489;DHT22;1255;48.716;9.124;2024-01-27T07:23:42;-1.50;99.90
2489;DHT22;1255;48.716;9.124;2024-01-27T07:26:09;-1.50;99.90
2489;DHT22;1255;48.716;9.124;2024-01-27T07:28:36;-1.40;99.90
2489;DHT22;1255;48.716;9.124;2024-01-27T07:31:03;-1.40;99.90
2489;DHT22;1255;48.716;9.124;2024-01-27T07:33:31;-1.40;99.90
2489;DHT22;1255;48.716;9.124;2024-01-27T07:35:58;-1.40;99.90
2489;DHT22;1255;48.716;9.124;2024-01-27T07:38:25;-1.30;99.90
2489;DHT22;1255;48.716;9.124;2024-01-27T07:40:52;-1.30;99.90
2489;DHT22;1255;48.716;9.124;2024-01-27T07:43:19;-1.30;99.90
2489;DHT22;1255;48.716;9.124;2024-01-27T07:45:45;-1.20;99.90
2489;DHT22;1255;48.716;9.124;2024-01-27T07:48:12;-1.20;99.90
2489;DHT22;1255;48.716;9.124;2024-01-27T07:50:40;-1.20;99.90
2489;DHT22;1255;48.716;9.124;2024-01-27T07:53:11;-1.10;99.90
2489;DHT22;1255;48.716;9.124;2024-01-27T07:55:38;-1.10;99.90
2489;DHT22;1255;48.716;9.124;2024-01-27T07:58:05;-1.00;99.90
2489;DHT22;1255;48.716;9.124;2024-01-27T08:00:32;-0.90;99.90
2489;DHT22;1255;48.716;9.124;2024-01-27T08:02:59;-0.70;99.90
2489;DHT22;1255;48.716;9.124;2024-01-27T08:05:25;0.00;99.90
2489;DHT22;1255;48.716;9.124;2024-01-27T08:07:54;1.00;99.90
2489;DHT22;1255;48.716;9.124;2024-01-27T08:10:21;1.90;99.90
2489;DHT22;1255;48.716;9.124;2024-01-27T08:12:48;2.30;99.90
2489;DHT22;1255;48.716;9.124;2024-01-27T08:15:15;2.80;99.90
2489;DHT22;1255;48.716;9.124;2024-01-27T08:17:42;3.20;99.90
2489;DHT22;1255;48.716;9.124;2024-01-27T08:20:09;3.30;99.90
2489;DHT22;1255;48.716;9.124;2024-01-27T08:22:36;3.50;99.90
2489;DHT22;1255;48.716;9.124;2024-01-27T08:25:05;3.90;99.90
2489;DHT22;1255;48.716;9.124;2024-01-27T08:27:32;4.30;99.90
2489;DHT22;1255;48.716;9.124;2024-01-27T08:29:59;5.00;99.90
2489;DHT22;1255;48.716;9.124;2024-01-27T08:32:26;6.00;99.90
2489;DHT22;1255;48.716;9.124;2024-01-27T08:34:53;7.20;99.90
2489;DHT22;1255;48.716;9.124;2024-01-27T08:37:20;8.00;99.90
2489;DHT22;1255;48.716;9.124;2024-01-27T08:39:47;9.20;99.90
2489;DHT22;1255;48.716;9.124;2024-01-27T08:42:17;9.70;99.90
2489;DHT22;1255;48.716;9.124;2024-01-27T08:44:44;10.40;99.90
2489;DHT22;1255;48.716;9.124;2024-01-27T08:47:11;11.00;99.90
2489;DHT22;1255;48.716;9.124;2024-01-27T08:49:38;11.70;99.90
2489;DHT22;1255;48.716;9.124;2024-01-27T08:52:05;12.90;99.90
2489;DHT22;1255;48.716;9.124;2024-01-27T08:54:33;14.10;99.90
2489;DHT22;1255;48.716;9.124;2024-01-27T08:57:00;14.80;99.90
2489;DHT22;1255;48.716;9.124;2024-01-27T08:59:29;16.00;99.90
2489;DHT22;1255;48.716;9.124;2024-01-27T09:01:56;16.70;98.80
2489;DHT22;1255;48.716;9.124;2024-01-27T09:04:22;17.30;97.40
2489;DHT22;1255;48.716;9.124;2024-01-27T09:06:49;18.00;96.30
2489;DHT22;1255;48.716;9.124;2024-01-27T09:09:16;19.00;95.40
2489;DHT22;1255;48.716;9.124;2024-01-27T09:11:43;20.20;93.90
2489;DHT22;1255;48.716;9.124;2024-01-27T09:14:11;21.30;92.60
2489;DHT22;1255;48.716;9.124;2024-01-27T09:16:39;22.40;91.10
2489;DHT22;1255;48.716;9.124;2024-01-27T09:19:07;23.50;89.40
2489;DHT22;1255;48.716;9.124;2024-01-27T09:21:35;24.10;86.60
2489;DHT22;1255;48.716;9.124;2024-01-27T09:24:02;24.70;84.80
2489;DHT22;1255;48.716;9.124;2024-01-27T09:26:29;24.60;82.10
2489;DHT22;1255;48.716;9.124;2024-01-27T09:28:56;24.70;82.20
2489;DHT22;1255;48.716;9.124;2024-01-27T09:31:23;25.10;80.30
2489;DHT22;1255;48.716;9.124;2024-01-27T09:33:53;24.60;80.50
2489;DHT22;1255;48.716;9.124;2024-01-27T09:36:20;24.80;79.80
2489;DHT22;1255;48.716;9.124;2024-01-27T09:38:47;25.40;79.50
2489;DHT22;1255;48.716;9.124;2024-01-27T09:41:15;25.70;77.10
2489;DHT22;1255;48.716;9.124;2024-01-27T09:43:43;25.80;77.30
2489;DHT22;1255;48.716;9.124;2024-01-27T09:46:10;25.30;78.00
2489;DHT22;1255;48.716;9.124;2024-01-27T09:48:37;25.20;79.20
2489;DHT22;1255;48.716;9.124;2024-01-27T09:51:07;24.90;76.20
2489;DHT22;1255;48.716;9.124;2024-01-27T09:53:35;24.10;77.50
2489;DHT22;1255;48.716;9.124;2024-01-27T09:56:02;23.60;76.10
2489;DHT22;1255;48.716;9.124;2024-01-27T09:58:30;22.80;77.60
2489;DHT22;1255;48.716;9.124;2024-01-27T10:00:59;23.70;79.40
2489;DHT22;1255;48.716;9.124;2024-01-27T10:03:28;24.20;77.40
2489;DHT22;1255;48.716;9.124;2024-01-27T10:05:57;22.80;79.10
2489;DHT22;1255;48.716;9.124;2024-01-27T10:08:25;21.80;78.70
2489;DHT22;1255;48.716;9.124;2024-01-27T10:10:54;20.50;79.60
2489;DHT22;1255;48.716;9.124;2024-01-27T10:13:22;20.40;81.00
2489;DHT22;1255;48.716;9.124;2024-01-27T10:15:59;20.20;82.80
2489;DHT22;1255;48.716;9.124;2024-01-27T10:18:26;20.60;81.50
2489;DHT22;1255;48.716;9.124;2024-01-27T10:20:53;21.60;81.30
2489;DHT22;1255;48.716;9.124;2024-01-27T10:23:20;22.80;79.30
2489;DHT22;1255;48.716;9.124;2024-01-27T10:25:49;23.70;77.40
2489;DHT22;1255;48.716;9.124;2024-01-27T10:28:16;23.30;78.60
2489;DHT22;1255;48.716;9.124;2024-01-27T10:30:43;23.80;78.90
2489;DHT22;1255;48.716;9.124;2024-01-27T10:33:11;25.20;78.10
2489;DHT22;1255;48.716;9.124;2024-01-27T10:35:39;25.70;74.80
2489;DHT22;1255;48.716;9.124;2024-01-27T10:38:05;25.70;74.10
2489;DHT22;1255;48.716;9.124;2024-01-27T10:40:32;25.80;73.90
2489;DHT22;1255;48.716;9.124;2024-01-27T10:43:03;26.50;74.50
2489;DHT22;1255;48.716;9.124;2024-01-27T10:45:35;26.80;72.20
2489;DHT22;1255;48.716;9.124;2024-01-27T10:48:03;26.20;73.00
2489;DHT22;1255;48.716;9.124;2024-01-27T10:50:30;26.30;74.80
2489;DHT22;1255;48.716;9.124;2024-01-27T10:52:58;26.20;73.20
2489;DHT22;1255;48.716;9.124;2024-01-27T10:55:27;26.30;74.30
2489;DHT22;1255;48.716;9.124;2024-01-27T10:57:54;27.00;73.10
2489;DHT22;1255;48.716;9.124;2024-01-27T11:00:24;26.80;72.20
2489;DHT22;1255;48.716;9.124;2024-01-27T11:02:52;26.80;72.60
2489;DHT22;1255;48.716;9.124;2024-01-27T11:05:20;26.60;72.20
2489;DHT22;1255;48.716;9.124;2024-01-27T11:07:48;25.90;73.30
2489;DHT22;1255;48.716;9.124;2024-01-27T11:10:16;25.80;73.10
2489;DHT22;1255;48.716;9.124;2024-01-27T11:12:44;25.90;72.50
2489;DHT22;1255;48.716;9.124;2024-01-27T11:15:11;25.90;72.30
2489;DHT22;1255;48.716;9.124;2024-01-27T11:17:40;25.80;70.50
2489;DHT22;1255;48.716;9.124;2024-01-27T11:20:09;24.60;73.20
2489;DHT22;1255;48.716;9.124;2024-01-27T11:22:37;24.50;74.10
2489;DHT22;1255;48.716;9.124;2024-01-27T11:25:07;24.60;75.00
2489;DHT22;1255;48.716;9.124;2024-01-27T11:27:34;24.90;73.10
2489;DHT22;1255;48.716;9.124;2024-01-27T11:30:02;25.20;72.50
2489;DHT22;1255;48.716;9.124;2024-01-27T11:32:29;24.90;74.40
2489;DHT22;1255;48.716;9.124;2024-01-27T11:35:01;25.20;73.40
2489;DHT22;1255;48.716;9.124;2024-01-27T11:37:30;25.00;73.60
2489;DHT22;1255;48.716;9.124;2024-01-27T11:40:04;24.70;74.30
2489;DHT22;1255;48.716;9.124;2024-01-27T11:42:32;25.00;74.30
2489;DHT22;1255;48.716;9.124;2024-01-27T11:44:59;25.00;73.40
2489;DHT22;1255;48.716;9.124;2024-01-27T11:47:26;24.90;73.60
2489;DHT22;1255;48.716;9.124;2024-01-27T11:49:54;24.30;73.90
2489;DHT22;1255;48.716;9.124;2024-01-27T11:52:24;23.90;74.90
2489;DHT22;1255;48.716;9.124;2024-01-27T11:54:54;22.90;75.20
2489;DHT22;1255;48.716;9.124;2024-01-27T11:57:21;22.20;76.40
2489;DHT22;1255;48.716;9.124;2024-01-27T11:59:48;21.60;78.00
2489;DHT22;1255;48.716;9.124;2024-01-27T12:02:15;21.00;77.70
2489;DHT22;1255;48.716;9.124;2024-01-27T12:04:42;20.30;79.00
2489;DHT22;1255;48.716;9.124;2024-01-27T12:07:09;19.90;78.80
2489;DHT22;1255;48.716;9.124;2024-01-27T12:09:37;19.60;78.90
2489;DHT22;1255;48.716;9.124;2024-01-27T12:12:05;19.80;78.70
2489;DHT22;1255;48.716;9.124;2024-01-27T12:14:38;20.20;77.70
2489;DHT22;1255;48.716;9.124;2024-01-27T12:17:07;20.30;78.10
2489;DHT22;1255;48.716;9.124;2024-01-27T12:19:34;19.80;79.00
2489;DHT22;1255;48.716;9.124;2024-01-27T12:22:01;19.00;79.20
2489;DHT22;1255;48.716;9.124;2024-01-27T12:24:28;18.50;80.10
2489;DHT22;1255;48.716;9.124;2024-01-27T12:26:56;18.20;80.90
2489;DHT22;1255;48.716;9.124;2024-01-27T12:29:23;18.00;81.10
2489;DHT22;1255;48.716;9.124;2024-01-27T12:31:50;18.10;81.90
2489;DHT22;1255;48.716;9.124;2024-01-27T12:34:18;18.10;82.30
2489;DHT22;1255;48.716;9.124;2024-01-27T12:36:44;17.40;82.80
2489;DHT22;1255;48.716;9.124;2024-01-27T12:39:11;17.00;83.40
2489;DHT22;1255;48.716;9.124;2024-01-27T12:41:39;16.40;85.10
2489;DHT22;1255;48.716;9.124;2024-01-27T12:44:07;16.00;85.80
2489;DHT22;1255;48.716;9.124;2024-01-27T12:46:44;15.70;86.50
2489;DHT22;1255;48.716;9.124;2024-01-27T12:49:11;15.40;87.10
2489;DHT22;1255;48.716;9.124;2024-01-27T12:51:37;15.30;88.00
2489;DHT22;1255;48.716;9.124;2024-01-27T12:54:06;15.10;88.70
2489;DHT22;1255;48.716;9.124;2024-01-27T12:56:33;15.10;87.20
2489;DHT22;1255;48.716;9.124;2024-01-27T12:59:01;15.00;87.90
2489;DHT22;1255;48.716;9.124;2024-01-27T13:01:29;14.70;88.10
2489;DHT22;1255;48.716;9.124;2024-01-27T13:03:56;14.40;88.60
2489;DHT22;1255;48.716;9.124;2024-01-27T13:06:23;14.30;88.60
2489;DHT22;1255;48.716;9.124;2024-01-27T13:08:50;14.30;88.40
2489;DHT22;1255;48.716;9.124;2024-01-27T13:11:17;14.50;88.70
2489;DHT22;1255;48.716;9.124;2024-01-27T13:13:46;14.80;88.00
2489;DHT22;1255;48.716;9.124;2024-01-27T13:16:15;15.20;86.80
2489;DHT22;1255;48.716;9.124;2024-01-27T13:18:43;15.40;83.10
2489;DHT22;1255;48.716;9.124;2024-01-27T13:21:11;15.60;83.90
2489;DHT22;1255;48.716;9.124;2024-01-27T13:23:38;15.80;83.00
2489;DHT22;1255;48.716;9.124;2024-01-27T13:26:05;16.30;81.20
2489;DHT22;1255;48.716;9.124;2024-01-27T13:28:32;16.80;79.20
2489;DHT22;1255;48.716;9.124;2024-01-27T13:30:59;17.20;79.50
2489;DHT22;1255;48.716;9.124;2024-01-27T13:33:25;17.40;79.00
2489;DHT22;1255;48.716;9.124;2024-01-27T13:35:55;17.90;77.40
2489;DHT22;1255;48.716;9.124;2024-01-27T13:38:22;18.30;77.00
2489;DHT22;1255;48.716;9.124;2024-01-27T13:40:49;18.20;76.70
2489;DHT22;1255;48.716;9.124;2024-01-27T13:43:16;18.10;76.20
2489;DHT22;1255;48.716;9.124;2024-01-27T13:45:43;18.50;74.40
2489;DHT22;1255;48.716;9.124;2024-01-27T13:48:13;18.50;74.20
2489;DHT22;1255;48.716;9.124;2024-01-27T13:50:41;18.60;74.90
2489;DHT22;1255;48.716;9.124;2024-01-27T13:53:09;18.40;73.40
2489;DHT22;1255;48.716;9.124;2024-01-27T13:55:38;18.20;74.70
2489;DHT22;1255;48.716;9.124;2024-01-27T13:58:08;17.80;75.70
2489;DHT22;1255;48.716;9.124;2024-01-27T14:00:34;17.90;76.30
2489;DHT22;1255;48.716;9.124;2024-01-27T14:03:01;18.20;75.80
2489;DHT22;1255;48.716;9.124;2024-01-27T14:05:28;18.00;76.30
2489;DHT22;1255;48.716;9.124;2024-01-27T14:07:55;17.70;76.40
2489;DHT22;1255;48.716;9.124;2024-01-27T14:10:24;17.00;77.40
2489;DHT22;1255;48.716;9.124;2024-01-27T14:12:51;16.10;78.10
2489;DHT22;1255;48.716;9.124;2024-01-27T14:15:19;15.20;80.00
2489;DHT22;1255;48.716;9.124;2024-01-27T14:17:46;14.30;80.70
2489;DHT22;1255;48.716;9.124;2024-01-27T14:20:14;13.50;82.30
2489;DHT22;1255;48.716;9.124;2024-01-27T14:22:41;12.80;83.20
2489;DHT22;1255;48.716;9.124;2024-01-27T14:25:09;12.20;86.30
2489;DHT22;1255;48.716;9.124;2024-01-27T14:27:37;11.50;87.90
2489;DHT22;1255;48.716;9.124;2024-01-27T14:30:05;11.20;88.20
2489;DHT22;1255;48.716;9.124;2024-01-27T14:32:32;10.90;88.20
2489;DHT22;1255;48.716;9.124;2024-01-27T14:34:59;10.50;89.80
2489;DHT22;1255;48.716;9.124;2024-01-27T14:37:25;10.30;90.30
2489;DHT22;1255;48.716;9.124;2024-01-27T14:39:52;10.10;90.80
2489;DHT22;1255;48.716;9.124;2024-01-27T14:42:19;9.90;91.60
2489;DHT22;1255;48.716;9.124;2024-01-27T14:44:47;10.10;91.40
2489;DHT22;1255;48.716;9.124;2024-01-27T14:47:15;10.20;91.30
2489;DHT22;1255;48.716;9.124;2024-01-27T14:49:41;10.70;91.20
2489;DHT22;1255;48.716;9.124;2024-01-27T14:52:10;11.30;90.60
2489;DHT22;1255;48.716;9.124;2024-01-27T14:54:38;11.70;90.30
2489;DHT22;1255;48.716;9.124;2024-01-27T14:57:05;11.90;90.10
2489;DHT22;1255;48.716;9.124;2024-01-27T14:59:34;12.10;90.40
2489;DHT22;1255;48.716;9.124;2024-01-27T15:02:02;11.90;90.20
2489;DHT22;1255;48.716;9.124;2024-01-27T15:04:29;11.80;90.30
2489;DHT22;1255;48.716;9.124;2024-01-27T15:06:56;11.80;90.50
2489;DHT22;1255;48.716;9.124;2024-01-27T15:09:23;11.60;90.60
2489;DHT22;1255;48.716;9.124;2024-01-27T15:11:50;11.40;90.80
2489;DHT22;1255;48.716;9.124;2024-01-27T15:14:18;11.00;90.90
2489;DHT22;1255;48.716;9.124;2024-01-27T15:16:45;10.30;91.90
2489;DHT22;1255;48.716;9.124;2024-01-27T15:19:13;9.90;92.70
2489;DHT22;1255;48.716;9.124;2024-01-27T15:21:40;9.50;93.40
2489;DHT22;1255;48.716;9.124;2024-01-27T15:24:07;9.20;94.00
2489;DHT22;1255;48.716;9.124;2024-01-27T15:26:34;8.80;94.40
2489;DHT22;1255;48.716;9.124;2024-01-27T15:29:02;8.60;94.80
2489;DHT22;1255;48.716;9.124;2024-01-27T15:31:29;8.40;95.50
2489;DHT22;1255;48.716;9.124;2024-01-27T15:33:55;8.10;96.00
2489;DHT22;1255;48.716;9.124;2024-01-27T15:36:23;7.90;96.30
2489;DHT22;1255;48.716;9.124;2024-01-27T15:38:50;7.70;96.40
2489;DHT22;1255;48.716;9.124;2024-01-27T15:41:17;7.50;97.00
2489;DHT22;1255;48.716;9.124;2024-01-27T15:43:44;7.40;97.50
2489;DHT22;1255;48.716;9.124;2024-01-27T15:46:13;7.20;97.40
2489;DHT22;1255;48.716;9.124;2024-01-27T15:48:40;7.00;97.90
2489;DHT22;1255;48.716;9.124;2024-01-27T15:51:06;6.80;98.50
2489;DHT22;1255;48.716;9.124;2024-01-27T15:53:34;6.60;98.50
2489;DHT22;1255;48.716;9.124;2024-01-27T15:56:01;6.50;99.30
2489;DHT22;1255;48.716;9.124;2024-01-27T15:58:28;6.30;99.70
2489;DHT22;1255;48.716;9.124;2024-01-27T16:00:55;6.00;99.90
2489;DHT22;1255;48.716;9.124;2024-01-27T16:03:22;5.90;99.90
2489;DHT22;1255;48.716;9.124;2024-01-27T16:05:49;5.70;99.90